sensor_id;sensor_type;location;lat;lon;timestamp;temperature;humidity
39021;DHT22;25188;51.958;5.842;2022-08-19T00:01:50;20.40;90.40
39021;DHT22;25188;51.958;5.842;2022-08-19T00:04:18;20.40;90.40
39021;DHT22;25188;51.958;5.842;2022-08-19T00:06:45;20.40;90.50
39021;DHT22;25188;51.958;5.842;2022-08-19T00:09:15;20.30;90.60
39021;DHT22;25188;51.958;5.842;2022-08-19T00:11:42;20.30;90.70
39021;DHT22;25188;51.958;5.842;2022-08-19T00:14:11;20.30;90.70
39021;DHT22;25188;51.958;5.842;2022-08-19T00:16:38;20.30;90.80
39021;DHT22;25188;51.958;5.842;2022-08-19T00:19:04;20.30;90.90
39021;DHT22;25188;51.958;5.842;2022-08-19T00:21:30;20.20;90.90
39021;DHT22;25188;51.958;5.842;2022-08-19T00:23:56;20.20;91.00
39021;DHT22;25188;51.958;5.842;2022-08-19T00:26:26;20.20;91.10
39021;DHT22;25188;51.958;5.842;2022-08-19T00:28:52;20.20;91.10
39021;DHT22;25188;51.958;5.842;2022-08-19T00:31:17;20.10;91.20
39021;DHT22;25188;51.958;5.842;2022-08-19T00:33:43;20.10;91.30
39021;DHT22;25188;51.958;5.842;2022-08-19T00:36:09;20.10;91.30
39021;DHT22;25188;51.958;5.842;2022-08-19T00:38:37;20.00;91.30
39021;DHT22;25188;51.958;5.842;2022-08-19T00:41:04;20.00;91.40
39021;DHT22;25188;51.958;5.842;2022-08-19T00:43:30;19.90;91.40
39021;DHT22;25188;51.958;5.842;2022-08-19T00:45:56;19.90;91.50
39021;DHT22;25188;51.958;5.842;2022-08-19T00:48:22;19.90;91.60
39021;DHT22;25188;51.958;5.842;2022-08-19T00:50:49;19.80;91.60
39021;DHT22;25188;51.958;5.842;2022-08-19T00:53:19;19.70;91.60
39021;DHT22;25188;51.958;5.842;2022-08-19T00:55:46;19.70;91.70
39021;DHT22;25188;51.958;5.842;2022-08-19T00:58:17;19.60;91.80
39021;DHT22;25188;51.958;5.842;2022-08-19T01:00:45;19.60;91.90
39021;DHT22;25188;51.958;5.842;2022-08-19T01:03:16;19.50;92.00
39021;DHT22;25188;51.958;5.842;2022-08-19T01:05:44;19.50;92.10
39021;DHT22;25188;51.958;5.842;2022-08-19T01:08:11;19.50;92.20
39021;DHT22;25188;51.958;5.842;2022-08-19T01:10:53;19.50;92.30
39021;DHT22;25188;51.958;5.842;2022-08-19T01:13:30;19.40;92.40
39021;DHT22;25188;51.958;5.842;2022-08-19T01:16:11;19.40;92.50
39021;DHT22;25188;51.958;5.842;2022-08-19T01:18:41;19.40;92.60
39021;DHT22;25188;51.958;5.842;2022-08-19T01:21:12;19.30;92.60
39021;DHT22;25188;51.958;5.842;2022-08-19T01:23:40;19.30;92.70
39021;DHT22;25188;51.958;5.842;2022-08-19T01:26:14;19.30;92.70
39021;DHT22;25188;51.958;5.842;2022-08-19T01:28:42;19.20;92.80
39021;DHT22;25188;51.958;5.842;2022-08-19T01:31:11;19.20;92.90
39021;DHT22;25188;51.958;5.842;2022-08-19T01:33:37;19.10;93.00
39021;DHT22;25188;51.958;5.842;2022-08-19T01:36:05;19.10;93.10
39021;DHT22;25188;51.958;5.842;2022-08-19T01:38:36;19.10;93.20
39021;DHT22;25188;51.958;5.842;2022-08-19T01:41:01;19.10;93.30
39021;DHT22;25188;51.958;5.842;2022-08-19T01:43:27;19.10;93.30
39021;DHT22;25188;51.958;5.842;2022-08-19T01:45:53;19.10;93.40
39021;DHT22;25188;51.958;5.842;2022-08-19T01:48:19;19.00;93.50
39021;DHT22;25188;51.958;5.842;2022-08-19T01:50:45;19.10;93.60
39021;DHT22;25188;51.958;5.842;2022-08-19T01:53:11;19.00;93.70
39021;DHT22;25188;51.958;5.842;2022-08-19T01:55:39;19.00;93.80
39021;DHT22;25188;51.958;5.842;2022-08-19T01:58:06;18.90;93.90
39021;DHT22;25188;51.958;5.842;2022-08-19T02:00:33;19.00;94.00
39021;DHT22;25188;51.958;5.842;2022-08-19T02:02:59;19.00;94.10
39021;DHT22;25188;51.958;5.842;2022-08-19T02:05:27;19.00;94.20
39021;DHT22;25188;51.958;5.842;2022-08-19T02:07:57;19.00;94.30
39021;DHT22;25188;51.958;5.842;2022-08-19T02:10:24;19.00;94.40
39021;DHT22;25188;51.958;5.842;2022-08-19T02:12:50;19.10;94.50
39021;DHT22;25188;51.958;5.842;2022-08-19T02:15:17;19.10;94.60
39021;DHT22;25188;51.958;5.842;2022-08-19T02:17:44;19.10;94.70
39021;DHT22;25188;51.958;5.842;2022-08-19T02:20:11;19.10;94.70
39021;DHT22;25188;51.958;5.842;2022-08-19T02:22:37;19.20;94.80
39021;DHT22;25188;51.958;5.842;2022-08-19T02:25:04;19.20;94.90
39021;DHT22;25188;51.958;5.842;2022-08-19T02:27:30;19.20;94.90
39021;DHT22;25188;51.958;5.842;2022-08-19T02:29:56;19.20;94.90
39021;DHT22;25188;51.958;5.842;2022-08-19T02:32:22;19.20;94.90
39021;DHT22;25188;51.958;5.842;2022-08-19T02:34:47;19.20;94.90
39021;DHT22;25188;51.958;5.842;2022-08-19T02:37:13;19.20;94.90
39021;DHT22;25188;51.958;5.842;2022-08-19T02:39:58;19.20;94.90
39021;DHT22;25188;51.958;5.842;2022-08-19T02:42:23;19.10;94.90
39021;DHT22;25188;51.958;5.842;2022-08-19T02:44:49;19.10;95.00
39021;DHT22;25188;51.958;5.842;2022-08-19T02:47:15;19.00;95.00
39021;DHT22;25188;51.958;5.842;2022-08-19T02:49:41;18.90;95.00
39021;DHT22;25188;51.958;5.842;2022-08-19T02:52:07;19.00;95.20
39021;DHT22;25188;51.958;5.842;2022-08-19T02:54:33;18.90;95.20
39021;DHT22;25188;51.958;5.842;2022-08-19T02:56:58;18.90;95.40
39021;DHT22;25188;51.958;5.842;2022-08-19T02:59:24;18.80;95.40
39021;DHT22;25188;51.958;5.842;2022-08-19T03:01:51;18.80;95.60
39021;DHT22;25188;51.958;5.842;2022-08-19T03:04:17;18.80;95.60
39021;DHT22;25188;51.958;5.842;2022-08-19T03:06:46;18.70;95.60
39021;DHT22;25188;51.958;5.842;2022-08-19T03:09:13;18.70;95.70
39021;DHT22;25188;51.958;5.842;2022-08-19T03:11:39;18.70;95.70
39021;DHT22;25188;51.958;5.842;2022-08-19T03:14:06;18.60;95.70
39021;DHT22;25188;51.958;5.842;2022-08-19T03:16:35;18.60;95.70
39021;DHT22;25188;51.958;5.842;2022-08-19T03:19:01;18.60;95.80
39021;DHT22;25188;51.958;5.842;2022-08-19T03:21:31;18.50;95.80
39021;DHT22;25188;51.958;5.842;2022-08-19T03:23:59;18.40;95.90
39021;DHT22;25188;51.958;5.842;2022-08-19T03:26:25;18.40;95.90
39021;DHT22;25188;51.958;5.842;2022-08-19T03:28:51;18.40;96.00
39021;DHT22;25188;51.958;5.842;2022-08-19T03:31:22;18.40;96.10
39021;DHT22;25188;51.958;5.842;2022-08-19T03:33:51;18.40;96.20
39021;DHT22;25188;51.958;5.842;2022-08-19T03:36:20;18.30;96.20
39021;DHT22;25188;51.958;5.842;2022-08-19T03:38:58;18.30;96.30
39021;DHT22;25188;51.958;5.842;2022-08-19T03:41:30;18.30;96.30
39021;DHT22;25188;51.958;5.842;2022-08-19T03:43:56;18.20;96.40
39021;DHT22;25188;51.958;5.842;2022-08-19T03:46:29;18.20;96.50
39021;DHT22;25188;51.958;5.842;2022-08-19T03:48:56;18.20;96.60
39021;DHT22;25188;51.958;5.842;2022-08-19T03:51:25;18.20;96.60
39021;DHT22;25188;51.958;5.842;2022-08-19T03:53:53;18.20;96.70
39021;DHT22;25188;51.958;5.842;2022-08-19T03:56:20;18.20;96.80
39021;DHT22;25188;51.958;5.842;2022-08-19T03:58:46;18.20;96.90
39021;DHT22;25188;51.958;5.842;2022-08-19T04:01:15;18.20;96.80
39021;DHT22;25188;51.958;5.842;2022-08-19T04:03:41;18.10;96.80
39021;DHT22;25188;51.958;5.842;2022-08-19T04:06:20;18.10;96.90
39021;DHT22;25188;51.958;5.842;2022-08-19T04:08:48;18.10;96.90
39021;DHT22;25188;51.958;5.842;2022-08-19T04:11:17;18.10;96.90
39021;DHT22;25188;51.958;5.842;2022-08-19T04:13:43;18.00;97.00
39021;DHT22;25188;51.958;5.842;2022-08-19T04:16:10;18.10;97.10
39021;DHT22;25188;51.958;5.842;2022-08-19T04:18:37;18.00;97.10
39021;DHT22;25188;51.958;5.842;2022-08-19T04:21:03;18.00;97.20
39021;DHT22;25188;51.958;5.842;2022-08-19T04:23:30;18.00;97.30
39021;DHT22;25188;51.958;5.842;2022-08-19T04:25:56;18.00;97.40
39021;DHT22;25188;51.958;5.842;2022-08-19T04:28:22;18.00;97.50
39021;DHT22;25188;51.958;5.842;2022-08-19T04:30:53;18.00;97.50
39021;DHT22;25188;51.958;5.842;2022-08-19T04:33:22;18.00;97.60
39021;DHT22;25188;51.958;5.842;2022-08-19T04:35:49;18.00;97.70
39021;DHT22;25188;51.958;5.842;2022-08-19T04:38:20;18.00;97.80
39021;DHT22;25188;51.958;5.842;2022-08-19T04:40:49;18.00;97.80
39021;DHT22;25188;51.958;5.842;2022-08-19T04:43:35;17.90;97.80
39021;DHT22;25188;51.958;5.842;2022-08-19T04:46:09;17.90;97.80
39021;DHT22;25188;51.958;5.842;2022-08-19T04:48:36;17.90;97.80
39021;DHT22;25188;51.958;5.842;2022-08-19T04:51:07;17.80;97.80
39021;DHT22;25188;51.958;5.842;2022-08-19T04:53:36;17.80;97.80
39021;DHT22;25188;51.958;5.842;2022-08-19T04:56:07;17.80;97.90
39021;DHT22;25188;51.958;5.842;2022-08-19T04:58:35;17.80;98.00
39021;DHT22;25188;51.958;5.842;2022-08-19T05:01:02;17.80;98.00
39021;DHT22;25188;51.958;5.842;2022-08-19T05:03:28;17.80;98.10
39021;DHT22;25188;51.958;5.842;2022-08-19T05:06:08;17.80;98.10
39021;DHT22;25188;51.958;5.842;2022-08-19T05:08:36;17.80;98.20
39021;DHT22;25188;51.958;5.842;2022-08-19T05:11:11;17.80;98.30
39021;DHT22;25188;51.958;5.842;2022-08-19T05:13:37;17.80;98.30
39021;DHT22;25188;51.958;5.842;2022-08-19T05:16:04;17.80;98.30
39021;DHT22;25188;51.958;5.842;2022-08-19T05:18:30;17.80;98.30
39021;DHT22;25188;51.958;5.842;2022-08-19T05:21:16;17.80;98.40
39021;DHT22;25188;51.958;5.842;2022-08-19T05:24:01;17.70;98.40
39021;DHT22;25188;51.958;5.842;2022-08-19T05:26:27;17.70;98.30
39021;DHT22;25188;51.958;5.842;2022-08-19T05:28:54;17.70;98.40
39021;DHT22;25188;51.958;5.842;2022-08-19T05:31:20;17.70;98.40
39021;DHT22;25188;51.958;5.842;2022-08-19T05:33:46;17.70;98.40
39021;DHT22;25188;51.958;5.842;2022-08-19T05:36:12;17.70;98.40
39021;DHT22;25188;51.958;5.842;2022-08-19T05:38:38;17.70;98.50
39021;DHT22;25188;51.958;5.842;2022-08-19T05:41:11;17.70;98.50
39021;DHT22;25188;51.958;5.842;2022-08-19T05:43:37;17.70;98.50
39021;DHT22;25188;51.958;5.842;2022-08-19T05:46:04;17.70;98.50
39021;DHT22;25188;51.958;5.842;2022-08-19T05:48:32;17.80;98.50
39021;DHT22;25188;51.958;5.842;2022-08-19T05:50:58;17.80;98.60
39021;DHT22;25188;51.958;5.842;2022-08-19T05:53:25;17.80;98.60
39021;DHT22;25188;51.958;5.842;2022-08-19T05:55:50;17.80;98.70
39021;DHT22;25188;51.958;5.842;2022-08-19T05:58:16;17.90;98.80
39021;DHT22;25188;51.958;5.842;2022-08-19T06:00:43;17.90;98.90
39021;DHT22;25188;51.958;5.842;2022-08-19T06:03:09;18.00;99.00
39021;DHT22;25188;51.958;5.842;2022-08-19T06:05:35;18.00;99.00
39021;DHT22;25188;51.958;5.842;2022-08-19T06:08:01;18.00;99.00
39021;DHT22;25188;51.958;5.842;2022-08-19T06:10:27;18.10;99.10
39021;DHT22;25188;51.958;5.842;2022-08-19T06:12:53;18.10;99.10
39021;DHT22;25188;51.958;5.842;2022-08-19T06:15:19;18.10;99.10
39021;DHT22;25188;51.958;5.842;2022-08-19T06:17:45;18.10;99.10
39021;DHT22;25188;51.958;5.842;2022-08-19T06:20:13;18.10;99.10
39021;DHT22;25188;51.958;5.842;2022-08-19T06:22:42;18.10;99.10
39021;DHT22;25188;51.958;5.842;2022-08-19T06:25:08;18.20;99.10
39021;DHT22;25188;51.958;5.842;2022-08-19T06:27:35;18.20;99.20
39021;DHT22;25188;51.958;5.842;2022-08-19T06:30:03;18.30;99.30
39021;DHT22;25188;51.958;5.842;2022-08-19T06:32:28;18.30;99.40
39021;DHT22;25188;51.958;5.842;2022-08-19T06:34:54;18.40;99.50
39021;DHT22;25188;51.958;5.842;2022-08-19T06:37:20;18.50;99.70
39021;DHT22;25188;51.958;5.842;2022-08-19T06:39:47;18.60;99.80
39021;DHT22;25188;51.958;5.842;2022-08-19T06:42:13;18.60;99.80
39021;DHT22;25188;51.958;5.842;2022-08-19T06:44:43;18.70;99.90
39021;DHT22;25188;51.958;5.842;2022-08-19T06:47:12;18.80;99.90
39021;DHT22;25188;51.958;5.842;2022-08-19T06:49:38;18.90;99.90
39021;DHT22;25188;51.958;5.842;2022-08-19T06:52:05;19.00;99.90
39021;DHT22;25188;51.958;5.842;2022-08-19T06:54:30;19.00;99.90
39021;DHT22;25188;51.958;5.842;2022-08-19T06:56:58;19.10;99.90
39021;DHT22;25188;51.958;5.842;2022-08-19T06:59:28;19.20;99.90
39021;DHT22;25188;51.958;5.842;2022-08-19T07:01:58;19.30;99.90
39021;DHT22;25188;51.958;5.842;2022-08-19T07:04:28;19.30;99.90
39021;DHT22;25188;51.958;5.842;2022-08-19T07:07:01;19.30;99.90
39021;DHT22;25188;51.958;5.842;2022-08-19T07:09:27;19.40;99.80
39021;DHT22;25188;51.958;5.842;2022-08-19T07:11:54;19.50;99.80
39021;DHT22;25188;51.958;5.842;2022-08-19T07:14:23;19.50;99.70
39021;DHT22;25188;51.958;5.842;2022-08-19T07:16:51;19.50;99.50
39021;DHT22;25188;51.958;5.842;2022-08-19T07:19:18;19.60;99.20
39021;DHT22;25188;51.958;5.842;2022-08-19T07:21:46;19.60;99.20
39021;DHT22;25188;51.958;5.842;2022-08-19T07:24:12;19.70;99.20
39021;DHT22;25188;51.958;5.842;2022-08-19T07:26:40;19.70;99.10
39021;DHT22;25188;51.958;5.842;2022-08-19T07:29:06;19.80;99.10
39021;DHT22;25188;51.958;5.842;2022-08-19T07:31:32;19.90;98.90
39021;DHT22;25188;51.958;5.842;2022-08-19T07:34:03;19.90;98.80
39021;DHT22;25188;51.958;5.842;2022-08-19T07:36:33;20.00;98.80
39021;DHT22;25188;51.958;5.842;2022-08-19T07:39:01;20.10;98.70
39021;DHT22;25188;51.958;5.842;2022-08-19T07:41:28;20.20;98.50
39021;DHT22;25188;51.958;5.842;2022-08-19T07:43:58;20.20;98.40
39021;DHT22;25188;51.958;5.842;2022-08-19T07:46:24;20.30;98.10
39021;DHT22;25188;51.958;5.842;2022-08-19T07:48:51;20.30;97.90
39021;DHT22;25188;51.958;5.842;2022-08-19T07:51:18;20.40;97.80
39021;DHT22;25188;51.958;5.842;2022-08-19T07:53:45;20.30;97.50
39021;DHT22;25188;51.958;5.842;2022-08-19T07:56:13;20.40;97.30
39021;DHT22;25188;51.958;5.842;2022-08-19T07:58:42;20.40;97.20
39021;DHT22;25188;51.958;5.842;2022-08-19T08:01:11;20.40;97.10
39021;DHT22;25188;51.958;5.842;2022-08-19T08:03:38;20.40;96.80
39021;DHT22;25188;51.958;5.842;2022-08-19T08:06:23;20.40;96.70
39021;DHT22;25188;51.958;5.842;2022-08-19T08:09:08;20.40;96.50
39021;DHT22;25188;51.958;5.842;2022-08-19T08:11:42;20.40;96.60
39021;DHT22;25188;51.958;5.842;2022-08-19T08:14:19;20.40;96.60
39021;DHT22;25188;51.958;5.842;2022-08-19T08:16:46;20.40;96.50
39021;DHT22;25188;51.958;5.842;2022-08-19T08:19:12;20.50;96.40
39021;DHT22;25188;51.958;5.842;2022-08-19T08:21:40;20.50;96.30
39021;DHT22;25188;51.958;5.842;2022-08-19T08:24:06;20.60;96.20
39021;DHT22;25188;51.958;5.842;2022-08-19T08:26:32;20.60;96.10
39021;DHT22;25188;51.958;5.842;2022-08-19T08:28:58;20.60;95.80
39021;DHT22;25188;51.958;5.842;2022-08-19T08:31:23;20.60;95.70
39021;DHT22;25188;51.958;5.842;2022-08-19T08:33:49;20.60;95.60
39021;DHT22;25188;51.958;5.842;2022-08-19T08:36:15;20.60;95.60
39021;DHT22;25188;51.958;5.842;2022-08-19T08:38:42;20.70;95.50
39021;DHT22;25188;51.958;5.842;2022-08-19T08:41:35;20.70;95.40
39021;DHT22;25188;51.958;5.842;2022-08-19T08:44:03;20.80;95.50
39021;DHT22;25188;51.958;5.842;2022-08-19T08:46:43;20.80;95.30
39021;DHT22;25188;51.958;5.842;2022-08-19T08:49:45;20.90;95.20
39021;DHT22;25188;51.958;5.842;2022-08-19T08:52:21;20.90;95.00
39021;DHT22;25188;51.958;5.842;2022-08-19T08:54:50;21.00;94.80
39021;DHT22;25188;51.958;5.842;2022-08-19T08:57:51;21.00;94.60
39021;DHT22;25188;51.958;5.842;2022-08-19T09:02:46;21.20;94.40
39021;DHT22;25188;51.958;5.842;2022-08-19T09:05:12;21.30;94.30
39021;DHT22;25188;51.958;5.842;2022-08-19T09:10:13;21.40;93.90
39021;DHT22;25188;51.958;5.842;2022-08-19T09:12:57;21.50;93.60
39021;DHT22;25188;51.958;5.842;2022-08-19T09:15:35;21.50;93.40
39021;DHT22;25188;51.958;5.842;2022-08-19T09:18:02;21.70;93.10
39021;DHT22;25188;51.958;5.842;2022-08-19T09:20:29;21.80;93.10
39021;DHT22;25188;51.958;5.842;2022-08-19T09:22:56;21.90;92.80
39021;DHT22;25188;51.958;5.842;2022-08-19T09:25:23;22.10;92.30
39021;DHT22;25188;51.958;5.842;2022-08-19T09:27:50;22.20;92.20
39021;DHT22;25188;51.958;5.842;2022-08-19T09:30:24;22.30;92.10
39021;DHT22;25188;51.958;5.842;2022-08-19T09:32:51;22.40;91.60
39021;DHT22;25188;51.958;5.842;2022-08-19T09:35:22;22.50;91.30
39021;DHT22;25188;51.958;5.842;2022-08-19T09:37:48;22.50;91.00
39021;DHT22;25188;51.958;5.842;2022-08-19T09:40:15;22.60;91.00
39021;DHT22;25188;51.958;5.842;2022-08-19T09:42:42;22.70;90.60
39021;DHT22;25188;51.958;5.842;2022-08-19T09:45:09;22.70;90.10
39021;DHT22;25188;51.958;5.842;2022-08-19T09:47:36;22.60;89.30
39021;DHT22;25188;51.958;5.842;2022-08-19T09:50:08;22.60;88.90
39021;DHT22;25188;51.958;5.842;2022-08-19T09:52:34;22.60;89.00
39021;DHT22;25188;51.958;5.842;2022-08-19T09:55:04;22.60;88.90
39021;DHT22;25188;51.958;5.842;2022-08-19T09:57:30;22.60;88.80
39021;DHT22;25188;51.958;5.842;2022-08-19T09:59:55;22.70;88.50
39021;DHT22;25188;51.958;5.842;2022-08-19T10:02:21;22.70;87.90
39021;DHT22;25188;51.958;5.842;2022-08-19T10:04:46;22.80;86.70
39021;DHT22;25188;51.958;5.842;2022-08-19T10:07:30;22.80;85.60
39021;DHT22;25188;51.958;5.842;2022-08-19T10:09:56;22.70;85.90
39021;DHT22;25188;51.958;5.842;2022-08-19T10:12:22;22.70;85.90
39021;DHT22;25188;51.958;5.842;2022-08-19T10:14:48;22.80;85.80
39021;DHT22;25188;51.958;5.842;2022-08-19T10:17:16;22.90;85.90
39021;DHT22;25188;51.958;5.842;2022-08-19T10:19:43;23.10;85.10
39021;DHT22;25188;51.958;5.842;2022-08-19T10:22:08;23.20;84.80
39021;DHT22;25188;51.958;5.842;2022-08-19T10:24:38;23.50;84.70
39021;DHT22;25188;51.958;5.842;2022-08-19T10:27:04;23.80;84.40
39021;DHT22;25188;51.958;5.842;2022-08-19T10:29:33;24.10;83.20
39021;DHT22;25188;51.958;5.842;2022-08-19T10:32:05;24.30;82.40
39021;DHT22;25188;51.958;5.842;2022-08-19T10:34:32;24.60;80.70
39021;DHT22;25188;51.958;5.842;2022-08-19T10:36:59;24.70;80.90
39021;DHT22;25188;51.958;5.842;2022-08-19T10:39:26;25.00;80.00
39021;DHT22;25188;51.958;5.842;2022-08-19T10:41:55;25.50;79.00
39021;DHT22;25188;51.958;5.842;2022-08-19T10:44:22;26.00;78.90
39021;DHT22;25188;51.958;5.842;2022-08-19T10:46:48;26.40;77.30
39021;DHT22;25188;51.958;5.842;2022-08-19T10:49:14;26.80;76.20
39021;DHT22;25188;51.958;5.842;2022-08-19T10:51:40;27.20;74.90
39021;DHT22;25188;51.958;5.842;2022-08-19T10:54:25;27.70;73.30
39021;DHT22;25188;51.958;5.842;2022-08-19T10:57:11;27.90;70.70
39021;DHT22;25188;51.958;5.842;2022-08-19T10:59:36;28.20;69.80
39021;DHT22;25188;51.958;5.842;2022-08-19T11:02:05;28.10;67.30
39021;DHT22;25188;51.958;5.842;2022-08-19T11:04:31;28.30;67.10
39021;DHT22;25188;51.958;5.842;2022-08-19T11:06:57;28.50;67.30
39021;DHT22;25188;51.958;5.842;2022-08-19T11:09:25;28.90;65.80
39021;DHT22;25188;51.958;5.842;2022-08-19T11:11:53;29.40;64.10
39021;DHT22;25188;51.958;5.842;2022-08-19T11:14:20;29.80;63.60
39021;DHT22;25188;51.958;5.842;2022-08-19T11:16:47;29.80;62.70
39021;DHT22;25188;51.958;5.842;2022-08-19T11:19:14;29.80;61.50
39021;DHT22;25188;51.958;5.842;2022-08-19T11:21:43;29.70;61.20
39021;DHT22;25188;51.958;5.842;2022-08-19T11:24:15;29.80;61.10
39021;DHT22;25188;51.958;5.842;2022-08-19T11:26:42;30.10;60.70
39021;DHT22;25188;51.958;5.842;2022-08-19T11:29:10;30.50;60.70
39021;DHT22;25188;51.958;5.842;2022-08-19T11:31:37;31.10;59.90
39021;DHT22;25188;51.958;5.842;2022-08-19T11:34:11;31.60;58.90
39021;DHT22;25188;51.958;5.842;2022-08-19T11:36:38;31.90;58.20
39021;DHT22;25188;51.958;5.842;2022-08-19T11:39:05;32.20;56.70
39021;DHT22;25188;51.958;5.842;2022-08-19T11:41:31;32.20;56.60
39021;DHT22;25188;51.958;5.842;2022-08-19T11:43:57;32.30;56.00
39021;DHT22;25188;51.958;5.842;2022-08-19T11:46:25;32.60;55.70
39021;DHT22;25188;51.958;5.842;2022-08-19T11:48:51;32.80;55.40
39021;DHT22;25188;51.958;5.842;2022-08-19T11:51:20;32.80;55.10
39021;DHT22;25188;51.958;5.842;2022-08-19T11:53:48;32.80;54.90
39021;DHT22;25188;51.958;5.842;2022-08-19T11:56:14;32.80;54.70
39021;DHT22;25188;51.958;5.842;2022-08-19T11:58:40;32.80;54.40
39021;DHT22;25188;51.958;5.842;2022-08-19T12:01:10;32.80;54.20
39021;DHT22;25188;51.958;5.842;2022-08-19T12:03:42;32.80;53.80
39021;DHT22;25188;51.958;5.842;2022-08-19T12:06:11;32.90;53.40
39021;DHT22;25188;51.958;5.842;2022-08-19T12:08:40;32.90;53.20
39021;DHT22;25188;51.958;5.842;2022-08-19T12:11:06;32.90;53.40
39021;DHT22;25188;51.958;5.842;2022-08-19T12:13:36;33.00;53.40
39021;DHT22;25188;51.958;5.842;2022-08-19T12:16:08;33.10;53.30
39021;DHT22;25188;51.958;5.842;2022-08-19T12:18:36;33.20;53.10
39021;DHT22;25188;51.958;5.842;2022-08-19T12:21:01;33.30;53.10
39021;DHT22;25188;51.958;5.842;2022-08-19T12:23:27;33.40;52.80
39021;DHT22;25188;51.958;5.842;2022-08-19T12:25:53;33.40;52.80
39021;DHT22;25188;51.958;5.842;2022-08-19T12:28:21;33.50;52.80
39021;DHT22;25188;51.958;5.842;2022-08-19T12:30:48;33.60;52.60
39021;DHT22;25188;51.958;5.842;2022-08-19T12:33:17;33.50;52.40
39021;DHT22;25188;51.958;5.842;2022-08-19T12:35:44;33.50;52.50
39021;DHT22;25188;51.958;5.842;2022-08-19T12:38:10;33.40;52.30
39021;DHT22;25188;51.958;5.842;2022-08-19T12:40:37;33.30;52.30
39021;DHT22;25188;51.958;5.842;2022-08-19T12:43:03;33.30;52.40
39021;DHT22;25188;51.958;5.842;2022-08-19T12:45:29;33.40;52.20
39021;DHT22;25188;51.958;5.842;2022-08-19T12:47:55;33.40;52.00
39021;DHT22;25188;51.958;5.842;2022-08-19T12:50:20;33.50;51.80
39021;DHT22;25188;51.958;5.842;2022-08-19T12:52:47;33.60;51.70
39021;DHT22;25188;51.958;5.842;2022-08-19T12:55:13;33.50;51.50
39021;DHT22;25188;51.958;5.842;2022-08-19T12:57:40;33.40;51.70
39021;DHT22;25188;51.958;5.842;2022-08-19T13:00:14;33.60;52.00
39021;DHT22;25188;51.958;5.842;2022-08-19T13:02:44;33.60;51.90
39021;DHT22;25188;51.958;5.842;2022-08-19T13:05:14;33.80;52.00
39021;DHT22;25188;51.958;5.842;2022-08-19T13:07:42;33.90;52.00
39021;DHT22;25188;51.958;5.842;2022-08-19T13:10:10;34.00;51.90
39021;DHT22;25188;51.958;5.842;2022-08-19T13:12:38;34.20;51.40
39021;DHT22;25188;51.958;5.842;2022-08-19T13:15:05;34.30;51.30
39021;DHT22;25188;51.958;5.842;2022-08-19T13:17:30;34.40;51.00
39021;DHT22;25188;51.958;5.842;2022-08-19T13:19:58;34.60;50.80
39021;DHT22;25188;51.958;5.842;2022-08-19T13:22:24;34.70;50.60
39021;DHT22;25188;51.958;5.842;2022-08-19T13:24:50;34.90;50.50
39021;DHT22;25188;51.958;5.842;2022-08-19T13:27:15;35.10;50.20
39021;DHT22;25188;51.958;5.842;2022-08-19T13:29:41;35.30;50.00
39021;DHT22;25188;51.958;5.842;2022-08-19T13:32:26;35.40;49.60
39021;DHT22;25188;51.958;5.842;2022-08-19T13:35:10;35.50;49.30
39021;DHT22;25188;51.958;5.842;2022-08-19T13:37:36;35.60;49.10
39021;DHT22;25188;51.958;5.842;2022-08-19T13:42:41;35.40;48.70
39021;DHT22;25188;51.958;5.842;2022-08-19T13:45:07;35.10;48.90
39021;DHT22;25188;51.958;5.842;2022-08-19T13:47:34;34.90;49.10
39021;DHT22;25188;51.958;5.842;2022-08-19T13:50:04;34.70;49.10
39021;DHT22;25188;51.958;5.842;2022-08-19T13:52:30;34.50;49.20
39021;DHT22;25188;51.958;5.842;2022-08-19T13:54:55;34.20;49.40
39021;DHT22;25188;51.958;5.842;2022-08-19T13:57:22;34.00;49.70
39021;DHT22;25188;51.958;5.842;2022-08-19T13:59:47;33.70;50.00
39021;DHT22;25188;51.958;5.842;2022-08-19T14:02:13;33.50;50.50
39021;DHT22;25188;51.958;5.842;2022-08-19T14:04:39;33.50;50.70
39021;DHT22;25188;51.958;5.842;2022-08-19T14:07:04;33.40;50.70
39021;DHT22;25188;51.958;5.842;2022-08-19T14:09:30;33.30;50.90
39021;DHT22;25188;51.958;5.842;2022-08-19T14:11:56;33.30;51.00
39021;DHT22;25188;51.958;5.842;2022-08-19T14:14:22;33.40;51.20
39021;DHT22;25188;51.958;5.842;2022-08-19T14:16:48;33.50;51.30
39021;DHT22;25188;51.958;5.842;2022-08-19T14:19:14;33.50;51.30
39021;DHT22;25188;51.958;5.842;2022-08-19T14:21:40;33.50;51.10
39021;DHT22;25188;51.958;5.842;2022-08-19T14:24:07;33.40;51.10
39021;DHT22;25188;51.958;5.842;2022-08-19T14:26:32;33.30;51.30
39021;DHT22;25188;51.958;5.842;2022-08-19T14:28:58;33.10;51.50
39021;DHT22;25188;51.958;5.842;2022-08-19T14:31:24;33.00;51.80
39021;DHT22;25188;51.958;5.842;2022-08-19T14:33:50;32.80;51.90
39021;DHT22;25188;51.958;5.842;2022-08-19T14:36:17;32.70;52.20
39021;DHT22;25188;51.958;5.842;2022-08-19T14:38:43;32.50;52.40
39021;DHT22;25188;51.958;5.842;2022-08-19T14:41:14;32.40;52.50
39021;DHT22;25188;51.958;5.842;2022-08-19T14:43:46;32.20;52.70
39021;DHT22;25188;51.958;5.842;2022-08-19T14:46:13;31.80;53.20
39021;DHT22;25188;51.958;5.842;2022-08-19T14:48:40;31.50;53.70
39021;DHT22;25188;51.958;5.842;2022-08-19T14:51:06;31.20;54.20
39021;DHT22;25188;51.958;5.842;2022-08-19T14:53:32;31.00;54.70
39021;DHT22;25188;51.958;5.842;2022-08-19T14:55:59;30.80;55.10
39021;DHT22;25188;51.958;5.842;2022-08-19T14:58:26;30.70;55.40
39021;DHT22;25188;51.958;5.842;2022-08-19T15:00:51;30.40;55.60
39021;DHT22;25188;51.958;5.842;2022-08-19T15:03:17;30.20;56.00
39021;DHT22;25188;51.958;5.842;2022-08-19T15:05:42;30.00;56.30
39021;DHT22;25188;51.958;5.842;2022-08-19T15:08:08;29.80;56.70
39021;DHT22;25188;51.958;5.842;2022-08-19T15:10:34;29.50;57.00
39021;DHT22;25188;51.958;5.842;2022-08-19T15:12:59;29.40;57.50
39021;DHT22;25188;51.958;5.842;2022-08-19T15:15:25;29.20;57.80
39021;DHT22;25188;51.958;5.842;2022-08-19T15:17:51;29.10;58.20
39021;DHT22;25188;51.958;5.842;2022-08-19T15:20:19;29.00;58.80
39021;DHT22;25188;51.958;5.842;2022-08-19T15:22:46;28.90;59.40
39021;DHT22;25188;51.958;5.842;2022-08-19T15:25:16;28.80;59.90
39021;DHT22;25188;51.958;5.842;2022-08-19T15:27:43;28.70;60.40
39021;DHT22;25188;51.958;5.842;2022-08-19T15:30:10;28.50;60.70
39021;DHT22;25188;51.958;5.842;2022-08-19T15:32:37;28.30;61.40
39021;DHT22;25188;51.958;5.842;2022-08-19T15:35:05;28.00;62.30
39021;DHT22;25188;51.958;5.842;2022-08-19T15:37:31;27.70;63.90
39021;DHT22;25188;51.958;5.842;2022-08-19T15:39:56;27.30;65.10
39021;DHT22;25188;51.958;5.842;2022-08-19T15:42:22;27.00;65.90
39021;DHT22;25188;51.958;5.842;2022-08-19T15:44:47;26.80;67.30